sensor_id;sensor_type;location;lat;lon;timestamp;P1;durP1;ratioP1;P2;durP2;ratioP2
31206;SDS011;17834;52.992;8.856;2024-01-11T00:02:22;26.25;;;11.57;;
31206;SDS011;17834;52.992;8.856;2024-01-11T00:04:48;27.73;;;12.18;;
31206;SDS011;17834;52.992;8.856;2024-01-11T00:07:13;27.52;;;12.98;;
31206;SDS011;17834;52.992;8.856;2024-01-11T00:09:42;32.45;;;13.50;;
31206;SDS011;17834;52.992;8.856;2024-01-11T00:12:08;33.13;;;12.52;;
31206;SDS011;17834;52.992;8.856;2024-01-11T00:14:34;33.47;;;13.57;;
31206;SDS011;17834;52.992;8.856;2024-01-11T00:17:00;29.63;;;14.93;;
31206;SDS011;17834;52.992;8.856;2024-01-11T00:19:26;32.17;;;13.70;;
31206;SDS011;17834;52.992;8.856;2024-01-11T00:21:51;25.52;;;13.88;;
31206;SDS011;17834;52.992;8.856;2024-01-11T00:24:17;26.33;;;12.80;;
31206;SDS011;17834;52.992;8.856;2024-01-11T00:26:42;27.80;;;11.80;;
31206;SDS011;17834;52.992;8.856;2024-01-11T00:29:08;37.13;;;13.32;;
31206;SDS011;17834;52.992;8.856;2024-01-11T00:31:33;31.27;;;13.48;;
31206;SDS011;17834;52.992;8.856;2024-01-11T00:34:00;31.58;;;12.30;;
31206;SDS011;17834;52.992;8.856;2024-01-11T00:36:26;31.70;;;13.70;;
31206;SDS011;17834;52.992;8.856;2024-01-11T00:38:51;33.47;;;13.57;;
31206;SDS011;17834;52.992;8.856;2024-01-11T00:41:17;30.08;;;12.80;;
31206;SDS011;17834;52.992;8.856;2024-01-11T00:43:42;32.03;;;12.30;;
31206;SDS011;17834;52.992;8.856;2024-01-11T00:46:08;32.00;;;13.98;;
31206;SDS011;17834;52.992;8.856;2024-01-11T00:48:33;35.10;;;14.02;;
31206;SDS011;17834;52.992;8.856;2024-01-11T00:50:59;26.17;;;12.10;;
31206;SDS011;17834;52.992;8.856;2024-01-11T00:53:24;34.08;;;13.45;;
31206;SDS011;17834;52.992;8.856;2024-01-11T00:55:55;35.35;;;14.48;;
31206;SDS011;17834;52.992;8.856;2024-01-11T00:58:21;44.30;;;16.23;;
31206;SDS011;17834;52.992;8.856;2024-01-11T01:00:46;30.15;;;14.00;;
31206;SDS011;17834;52.992;8.856;2024-01-11T01:03:12;41.78;;;16.75;;
31206;SDS011;17834;52.992;8.856;2024-01-11T01:05:37;37.60;;;14.55;;
31206;SDS011;17834;52.992;8.856;2024-01-11T01:08:03;47.17;;;17.63;;
31206;SDS011;17834;52.992;8.856;2024-01-11T01:10:28;45.97;;;19.02;;
31206;SDS011;17834;52.992;8.856;2024-01-11T01:12:54;40.63;;;16.92;;
31206;SDS011;17834;52.992;8.856;2024-01-11T01:15:19;51.50;;;19.40;;
31206;SDS011;17834;52.992;8.856;2024-01-11T01:17:45;51.17;;;18.70;;
31206;SDS011;17834;52.992;8.856;2024-01-11T01:20:11;52.78;;;17.23;;
31206;SDS011;17834;52.992;8.856;2024-01-11T01:22:36;55.85;;;17.67;;
31206;SDS011;17834;52.992;8.856;2024-01-11T01:25:02;52.20;;;19.23;;
31206;SDS011;17834;52.992;8.856;2024-01-11T01:27:28;54.03;;;19.67;;
31206;SDS011;17834;52.992;8.856;2024-01-11T01:29:54;37.60;;;16.15;;
31206;SDS011;17834;52.992;8.856;2024-01-11T01:32:19;74.05;;;17.77;;
31206;SDS011;17834;52.992;8.856;2024-01-11T01:34:45;52.40;;;18.17;;
31206;SDS011;17834;52.992;8.856;2024-01-11T01:37:11;38.30;;;17.13;;
31206;SDS011;17834;52.992;8.856;2024-01-11T01:39:39;50.40;;;18.50;;
31206;SDS011;17834;52.992;8.856;2024-01-11T01:42:05;54.05;;;16.75;;
31206;SDS011;17834;52.992;8.856;2024-01-11T01:44:31;45.70;;;17.30;;
31206;SDS011;17834;52.992;8.856;2024-01-11T01:46:57;48.95;;;18.05;;
31206;SDS011;17834;52.992;8.856;2024-01-11T01:49:23;51.67;;;18.13;;
31206;SDS011;17834;52.992;8.856;2024-01-11T01:51:49;54.42;;;18.45;;
31206;SDS011;17834;52.992;8.856;2024-01-11T01:54:17;59.55;;;17.13;;
31206;SDS011;17834;52.992;8.856;2024-01-11T01:56:45;58.58;;;16.65;;
31206;SDS011;17834;52.992;8.856;2024-01-11T01:59:10;50.60;;;16.40;;
31206;SDS011;17834;52.992;8.856;2024-01-11T02:01:37;56.78;;;18.42;;
31206;SDS011;17834;52.992;8.856;2024-01-11T02:04:04;49.08;;;18.02;;
31206;SDS011;17834;52.992;8.856;2024-01-11T02:06:29;47.03;;;16.48;;
31206;SDS011;17834;52.992;8.856;2024-01-11T02:08:58;57.92;;;18.83;;
31206;SDS011;17834;52.992;8.856;2024-01-11T02:11:25;61.08;;;17.98;;
31206;SDS011;17834;52.992;8.856;2024-01-11T02:13:52;57.75;;;19.10;;
31206;SDS011;17834;52.992;8.856;2024-01-11T02:16:18;54.78;;;16.05;;
31206;SDS011;17834;52.992;8.856;2024-01-11T02:18:44;53.13;;;19.13;;
31206;SDS011;17834;52.992;8.856;2024-01-11T02:21:09;46.47;;;18.45;;
31206;SDS011;17834;52.992;8.856;2024-01-11T02:23:42;53.67;;;17.88;;
31206;SDS011;17834;52.992;8.856;2024-01-11T02:26:14;55.08;;;19.73;;
31206;SDS011;17834;52.992;8.856;2024-01-11T02:28:44;52.90;;;19.17;;
31206;SDS011;17834;52.992;8.856;2024-01-11T02:31:10;43.70;;;17.67;;
31206;SDS011;17834;52.992;8.856;2024-01-11T02:33:37;49.53;;;18.73;;
31206;SDS011;17834;52.992;8.856;2024-01-11T02:36:03;41.25;;;17.25;;
31206;SDS011;17834;52.992;8.856;2024-01-11T02:38:29;59.13;;;19.17;;
31206;SDS011;17834;52.992;8.856;2024-01-11T02:40:55;49.90;;;17.15;;
31206;SDS011;17834;52.992;8.856;2024-01-11T02:43:21;60.67;;;18.50;;
31206;SDS011;17834;52.992;8.856;2024-01-11T02:45:47;64.15;;;20.15;;
31206;SDS011;17834;52.992;8.856;2024-01-11T02:48:12;53.45;;;19.05;;
31206;SDS011;17834;52.992;8.856;2024-01-11T02:50:38;53.70;;;17.80;;
31206;SDS011;17834;52.992;8.856;2024-01-11T02:53:03;56.30;;;19.65;;
31206;SDS011;17834;52.992;8.856;2024-01-11T02:55:29;61.25;;;20.00;;
31206;SDS011;17834;52.992;8.856;2024-01-11T02:57:54;48.75;;;18.50;;
31206;SDS011;17834;52.992;8.856;2024-01-11T03:00:20;46.50;;;16.80;;
31206;SDS011;17834;52.992;8.856;2024-01-11T03:02:45;49.42;;;17.10;;
31206;SDS011;17834;52.992;8.856;2024-01-11T03:05:11;49.20;;;18.15;;
31206;SDS011;17834;52.992;8.856;2024-01-11T03:07:36;50.63;;;16.80;;
31206;SDS011;17834;52.992;8.856;2024-01-11T03:10:02;45.03;;;18.58;;
31206;SDS011;17834;52.992;8.856;2024-01-11T03:12:27;42.60;;;17.20;;
31206;SDS011;17834;52.992;8.856;2024-01-11T03:14:53;45.72;;;17.50;;
31206;SDS011;17834;52.992;8.856;2024-01-11T03:17:19;45.70;;;18.30;;
31206;SDS011;17834;52.992;8.856;2024-01-11T03:19:44;49.25;;;17.08;;
31206;SDS011;17834;52.992;8.856;2024-01-11T03:22:11;43.85;;;18.13;;
31206;SDS011;17834;52.992;8.856;2024-01-11T03:24:37;53.17;;;19.05;;
31206;SDS011;17834;52.992;8.856;2024-01-11T03:27:06;56.10;;;19.13;;
31206;SDS011;17834;52.992;8.856;2024-01-11T03:29:31;51.55;;;18.52;;
31206;SDS011;17834;52.992;8.856;2024-01-11T03:31:57;43.40;;;17.02;;
31206;SDS011;17834;52.992;8.856;2024-01-11T03:34:22;52.58;;;20.10;;
31206;SDS011;17834;52.992;8.856;2024-01-11T03:36:48;49.38;;;18.83;;
31206;SDS011;17834;52.992;8.856;2024-01-11T03:39:13;47.42;;;17.15;;
31206;SDS011;17834;52.992;8.856;2024-01-11T03:41:45;59.33;;;20.83;;
31206;SDS011;17834;52.992;8.856;2024-01-11T03:44:11;48.63;;;18.02;;
31206;SDS011;17834;52.992;8.856;2024-01-11T03:46:37;50.45;;;18.73;;
31206;SDS011;17834;52.992;8.856;2024-01-11T03:49:02;53.38;;;20.38;;
31206;SDS011;17834;52.992;8.856;2024-01-11T03:51:28;59.30;;;19.63;;
31206;SDS011;17834;52.992;8.856;2024-01-11T03:53:54;48.58;;;19.33;;
31206;SDS011;17834;52.992;8.856;2024-01-11T03:56:19;49.13;;;18.88;;
31206;SDS011;17834;52.992;8.856;2024-01-11T03:58:45;53.08;;;20.63;;
31206;SDS011;17834;52.992;8.856;2024-01-11T04:01:10;53.53;;;19.65;;
31206;SDS011;17834;52.992;8.856;2024-01-11T04:03:36;64.47;;;21.75;;
31206;SDS011;17834;52.992;8.856;2024-01-11T04:06:03;46.00;;;17.00;;
31206;SDS011;17834;52.992;8.856;2024-01-11T04:08:28;52.45;;;19.42;;
31206;SDS011;17834;52.992;8.856;2024-01-11T04:10:54;56.97;;;20.90;;
31206;SDS011;17834;52.992;8.856;2024-01-11T04:13:19;54.35;;;17.85;;
31206;SDS011;17834;52.992;8.856;2024-01-11T04:15:45;72.63;;;22.17;;
31206;SDS011;17834;52.992;8.856;2024-01-11T04:18:12;55.28;;;19.58;;
31206;SDS011;17834;52.992;8.856;2024-01-11T04:20:37;55.50;;;20.38;;
31206;SDS011;17834;52.992;8.856;2024-01-11T04:23:03;53.63;;;20.80;;
31206;SDS011;17834;52.992;8.856;2024-01-11T04:25:28;65.95;;;22.98;;
31206;SDS011;17834;52.992;8.856;2024-01-11T04:27:54;62.85;;;18.65;;
31206;SDS011;17834;52.992;8.856;2024-01-11T04:30:19;61.85;;;22.38;;
31206;SDS011;17834;52.992;8.856;2024-01-11T04:32:45;58.80;;;21.83;;
31206;SDS011;17834;52.992;8.856;2024-01-11T04:35:10;60.25;;;19.38;;
31206;SDS011;17834;52.992;8.856;2024-01-11T04:37:36;52.40;;;19.05;;
31206;SDS011;17834;52.992;8.856;2024-01-11T04:40:01;63.25;;;19.73;;
31206;SDS011;17834;52.992;8.856;2024-01-11T04:42:28;56.97;;;20.30;;
31206;SDS011;17834;52.992;8.856;2024-01-11T04:44:54;57.17;;;20.92;;
31206;SDS011;17834;52.992;8.856;2024-01-11T04:47:19;57.00;;;20.27;;
31206;SDS011;17834;52.992;8.856;2024-01-11T04:49:45;56.75;;;20.40;;
31206;SDS011;17834;52.992;8.856;2024-01-11T04:52:10;55.45;;;21.00;;
31206;SDS011;17834;52.992;8.856;2024-01-11T04:54:36;58.75;;;21.25;;
31206;SDS011;17834;52.992;8.856;2024-01-11T04:57:02;59.88;;;21.48;;
31206;SDS011;17834;52.992;8.856;2024-01-11T04:59:28;66.43;;;21.25;;
31206;SDS011;17834;52.992;8.856;2024-01-11T05:01:54;62.97;;;22.80;;
31206;SDS011;17834;52.992;8.856;2024-01-11T05:04:19;52.53;;;17.30;;
31206;SDS011;17834;52.992;8.856;2024-01-11T05:06:45;75.18;;;22.88;;
31206;SDS011;17834;52.992;8.856;2024-01-11T05:09:10;70.78;;;20.52;;
31206;SDS011;17834;52.992;8.856;2024-01-11T05:11:36;58.15;;;19.02;;
31206;SDS011;17834;52.992;8.856;2024-01-11T05:14:01;62.45;;;20.83;;
31206;SDS011;17834;52.992;8.856;2024-01-11T05:16:27;63.70;;;20.80;;
31206;SDS011;17834;52.992;8.856;2024-01-11T05:18:54;57.80;;;21.77;;
31206;SDS011;17834;52.992;8.856;2024-01-11T05:21:21;69.03;;;20.85;;
31206;SDS011;17834;52.992;8.856;2024-01-11T05:23:47;65.72;;;21.42;;
31206;SDS011;17834;52.992;8.856;2024-01-11T05:26:14;66.45;;;21.90;;
31206;SDS011;17834;52.992;8.856;2024-01-11T05:28:40;72.40;;;23.83;;
31206;SDS011;17834;52.992;8.856;2024-01-11T05:31:09;59.72;;;20.95;;
31206;SDS011;17834;52.992;8.856;2024-01-11T05:33:35;60.75;;;19.92;;
31206;SDS011;17834;52.992;8.856;2024-01-11T05:36:01;66.57;;;21.45;;
31206;SDS011;17834;52.992;8.856;2024-01-11T05:38:27;63.55;;;20.85;;
31206;SDS011;17834;52.992;8.856;2024-01-11T05:40:53;70.03;;;20.98;;
31206;SDS011;17834;52.992;8.856;2024-01-11T05:43:18;69.55;;;20.63;;
31206;SDS011;17834;52.992;8.856;2024-01-11T05:45:44;69.15;;;22.40;;
31206;SDS011;17834;52.992;8.856;2024-01-11T05:48:10;65.05;;;20.00;;
31206;SDS011;17834;52.992;8.856;2024-01-11T05:50:36;60.58;;;20.58;;
31206;SDS011;17834;52.992;8.856;2024-01-11T05:53:01;69.20;;;23.90;;
31206;SDS011;17834;52.992;8.856;2024-01-11T05:55:27;64.72;;;22.17;;
31206;SDS011;17834;52.992;8.856;2024-01-11T05:57:53;58.55;;;20.40;;
31206;SDS011;17834;52.992;8.856;2024-01-11T06:00:18;57.83;;;19.60;;
31206;SDS011;17834;52.992;8.856;2024-01-11T06:02:44;65.05;;;23.27;;
31206;SDS011;17834;52.992;8.856;2024-01-11T06:05:10;59.53;;;22.25;;
31206;SDS011;17834;52.992;8.856;2024-01-11T06:07:37;70.18;;;20.73;;
31206;SDS011;17834;52.992;8.856;2024-01-11T06:10:03;88.82;;;24.33;;
31206;SDS011;17834;52.992;8.856;2024-01-11T06:12:30;78.53;;;25.73;;
31206;SDS011;17834;52.992;8.856;2024-01-11T06:14:56;61.38;;;21.75;;
31206;SDS011;17834;52.992;8.856;2024-01-11T06:17:22;78.82;;;23.77;;
31206;SDS011;17834;52.992;8.856;2024-01-11T06:19:48;72.72;;;20.88;;
31206;SDS011;17834;52.992;8.856;2024-01-11T06:22:14;73.57;;;23.92;;
31206;SDS011;17834;52.992;8.856;2024-01-11T06:24:40;70.55;;;20.95;;
31206;SDS011;17834;52.992;8.856;2024-01-11T06:27:05;67.47;;;20.10;;
31206;SDS011;17834;52.992;8.856;2024-01-11T06:29:31;81.25;;;22.10;;
31206;SDS011;17834;52.992;8.856;2024-01-11T06:31:56;69.60;;;23.30;;
31206;SDS011;17834;52.992;8.856;2024-01-11T06:34:22;74.40;;;23.75;;
31206;SDS011;17834;52.992;8.856;2024-01-11T06:36:47;70.40;;;21.98;;
31206;SDS011;17834;52.992;8.856;2024-01-11T06:39:13;73.60;;;22.02;;
31206;SDS011;17834;52.992;8.856;2024-01-11T06:41:38;64.30;;;20.45;;
31206;SDS011;17834;52.992;8.856;2024-01-11T06:44:04;71.88;;;21.70;;
31206;SDS011;17834;52.992;8.856;2024-01-11T06:46:29;74.28;;;21.92;;
31206;SDS011;17834;52.992;8.856;2024-01-11T06:48:55;68.00;;;23.88;;
31206;SDS011;17834;52.992;8.856;2024-01-11T06:51:21;58.85;;;18.40;;
31206;SDS011;17834;52.992;8.856;2024-01-11T06:53:47;68.82;;;19.88;;
31206;SDS011;17834;52.992;8.856;2024-01-11T06:56:13;61.63;;;20.23;;
31206;SDS011;17834;52.992;8.856;2024-01-11T06:58:40;63.65;;;21.35;;
31206;SDS011;17834;52.992;8.856;2024-01-11T07:01:05;75.68;;;21.48;;
31206;SDS011;17834;52.992;8.856;2024-01-11T07:03:31;66.55;;;20.90;;
31206;SDS011;17834;52.992;8.856;2024-01-11T07:05:56;63.35;;;20.77;;
31206;SDS011;17834;52.992;8.856;2024-01-11T07:08:22;69.53;;;23.20;;
31206;SDS011;17834;52.992;8.856;2024-01-11T07:10:48;80.45;;;22.63;;
31206;SDS011;17834;52.992;8.856;2024-01-11T07:13:13;69.43;;;22.63;;
31206;SDS011;17834;52.992;8.856;2024-01-11T07:15:41;84.90;;;24.52;;
31206;SDS011;17834;52.992;8.856;2024-01-11T07:18:07;65.25;;;20.83;;
31206;SDS011;17834;52.992;8.856;2024-01-11T07:20:33;76.95;;;23.00;;
31206;SDS011;17834;52.992;8.856;2024-01-11T07:22:58;68.43;;;21.42;;
31206;SDS011;17834;52.992;8.856;2024-01-11T07:25:24;74.72;;;23.08;;
31206;SDS011;17834;52.992;8.856;2024-01-11T07:27:50;70.65;;;20.27;;
31206;SDS011;17834;52.992;8.856;2024-01-11T07:30:16;77.68;;;22.27;;
31206;SDS011;17834;52.992;8.856;2024-01-11T07:32:43;69.90;;;19.63;;
31206;SDS011;17834;52.992;8.856;2024-01-11T07:35:09;77.88;;;22.33;;
31206;SDS011;17834;52.992;8.856;2024-01-11T07:37:36;61.95;;;19.58;;
31206;SDS011;17834;52.992;8.856;2024-01-11T07:40:01;73.32;;;19.70;;
31206;SDS011;17834;52.992;8.856;2024-01-11T07:42:28;69.30;;;22.33;;
31206;SDS011;17834;52.992;8.856;2024-01-11T07:44:54;71.45;;;19.70;;
31206;SDS011;17834;52.992;8.856;2024-01-11T07:47:19;68.90;;;21.20;;
31206;SDS011;17834;52.992;8.856;2024-01-11T07:49:45;59.85;;;21.20;;
31206;SDS011;17834;52.992;8.856;2024-01-11T07:52:11;63.83;;;19.10;;
31206;SDS011;17834;52.992;8.856;2024-01-11T07:54:36;73.57;;;20.73;;
31206;SDS011;17834;52.992;8.856;2024-01-11T07:57:02;65.40;;;19.70;;
31206;SDS011;17834;52.992;8.856;2024-01-11T07:59:35;69.47;;;20.52;;
31206;SDS011;17834;52.992;8.856;2024-01-11T08:02:01;63.30;;;19.95;;
31206;SDS011;17834;52.992;8.856;2024-01-11T08:04:26;81.20;;;22.30;;
31206;SDS011;17834;52.992;8.856;2024-01-11T08:06:52;62.67;;;21.63;;
31206;SDS011;17834;52.992;8.856;2024-01-11T08:09:18;82.97;;;21.55;;
31206;SDS011;17834;52.992;8.856;2024-01-11T08:11:43;82.80;;;23.48;;
31206;SDS011;17834;52.992;8.856;2024-01-11T08:14:09;62.03;;;18.95;;
31206;SDS011;17834;52.992;8.856;2024-01-11T08:16:34;73.30;;;20.10;;
31206;SDS011;17834;52.992;8.856;2024-01-11T08:19:00;67.55;;;18.20;;
31206;SDS011;17834;52.992;8.856;2024-01-11T08:21:26;77.35;;;22.33;;
31206;SDS011;17834;52.992;8.856;2024-01-11T08:23:51;69.13;;;20.38;;
31206;SDS011;17834;52.992;8.856;2024-01-11T08:26:17;69.15;;;19.73;;
31206;SDS011;17834;52.992;8.856;2024-01-11T08:28:46;71.28;;;21.90;;
31206;SDS011;17834;52.992;8.856;2024-01-11T08:31:12;96.78;;;24.83;;
31206;SDS011;17834;52.992;8.856;2024-01-11T08:33:38;87.63;;;22.38;;
31206;SDS011;17834;52.992;8.856;2024-01-11T08:36:04;80.75;;;20.13;;
31206;SDS011;17834;52.992;8.856;2024-01-11T08:38:31;71.78;;;21.63;;
31206;SDS011;17834;52.992;8.856;2024-01-11T08:40:56;70.25;;;23.35;;
31206;SDS011;17834;52.992;8.856;2024-01-11T08:43:23;78.18;;;20.30;;
31206;SDS011;17834;52.992;8.856;2024-01-11T08:45:52;85.20;;;22.92;;
31206;SDS011;17834;52.992;8.856;2024-01-11T08:48:18;76.82;;;21.60;;
31206;SDS011;17834;52.992;8.856;2024-01-11T08:50:43;78.68;;;22.42;;
31206;SDS011;17834;52.992;8.856;2024-01-11T08:53:09;82.35;;;23.70;;
31206;SDS011;17834;52.992;8.856;2024-01-11T08:55:34;78.75;;;19.45;;
31206;SDS011;17834;52.992;8.856;2024-01-11T08:58:00;79.60;;;23.05;;
31206;SDS011;17834;52.992;8.856;2024-01-11T09:00:26;82.07;;;22.70;;
31206;SDS011;17834;52.992;8.856;2024-01-11T09:02:51;66.93;;;21.88;;
31206;SDS011;17834;52.992;8.856;2024-01-11T09:05:17;72.32;;;21.13;;
31206;SDS011;17834;52.992;8.856;2024-01-11T09:07:43;67.18;;;21.17;;
31206;SDS011;17834;52.992;8.856;2024-01-11T09:10:08;74.35;;;19.40;;
31206;SDS011;17834;52.992;8.856;2024-01-11T09:12:35;70.35;;;19.85;;
31206;SDS011;17834;52.992;8.856;2024-01-11T09:15:01;71.57;;;22.45;;
31206;SDS011;17834;52.992;8.856;2024-01-11T09:17:26;70.68;;;20.70;;
31206;SDS011;17834;52.992;8.856;2024-01-11T09:19:52;76.78;;;21.48;;
31206;SDS011;17834;52.992;8.856;2024-01-11T09:22:17;63.72;;;21.13;;
31206;SDS011;17834;52.992;8.856;2024-01-11T09:24:43;81.47;;;20.83;;
31206;SDS011;17834;52.992;8.856;2024-01-11T09:27:08;73.75;;;23.35;;
31206;SDS011;17834;52.992;8.856;2024-01-11T09:29:34;86.25;;;24.38;;
31206;SDS011;17834;52.992;8.856;2024-01-11T09:31:59;67.78;;;22.25;;
31206;SDS011;17834;52.992;8.856;2024-01-11T09:34:25;71.78;;;21.10;;
31206;SDS011;17834;52.992;8.856;2024-01-11T09:36:50;68.85;;;20.58;;
31206;SDS011;17834;52.992;8.856;2024-01-11T09:39:17;68.53;;;21.10;;
31206;SDS011;17834;52.992;8.856;2024-01-11T09:41:46;76.47;;;22.13;;
31206;SDS011;17834;52.992;8.856;2024-01-11T09:44:17;68.47;;;20.77;;
31206;SDS011;17834;52.992;8.856;2024-01-11T09:46:44;75.53;;;22.98;;
31206;SDS011;17834;52.992;8.856;2024-01-11T09:49:09;85.10;;;22.75;;
31206;SDS011;17834;52.992;8.856;2024-01-11T09:51:37;64.18;;;20.20;;
31206;SDS011;17834;52.992;8.856;2024-01-11T09:54:04;68.22;;;19.55;;
31206;SDS011;17834;52.992;8.856;2024-01-11T09:56:30;65.53;;;20.15;;
31206;SDS011;17834;52.992;8.856;2024-01-11T09:58:57;65.60;;;19.65;;
31206;SDS011;17834;52.992;8.856;2024-01-11T10:01:22;76.93;;;21.63;;
31206;SDS011;17834;52.992;8.856;2024-01-11T10:03:49;67.68;;;21.25;;
31206;SDS011;17834;52.992;8.856;2024-01-11T10:06:15;70.40;;;19.77;;
31206;SDS011;17834;52.992;8.856;2024-01-11T10:08:42;75.28;;;21.20;;
31206;SDS011;17834;52.992;8.856;2024-01-11T10:11:08;67.85;;;20.45;;
31206;SDS011;17834;52.992;8.856;2024-01-11T10:13:34;57.97;;;18.42;;
31206;SDS011;17834;52.992;8.856;2024-01-11T10:16:10;67.30;;;22.52;;
31206;SDS011;17834;52.992;8.856;2024-01-11T10:18:43;65.40;;;21.02;;
31206;SDS011;17834;52.992;8.856;2024-01-11T10:21:09;72.93;;;20.63;;
31206;SDS011;17834;52.992;8.856;2024-01-11T10:23:35;60.22;;;18.00;;
31206;SDS011;17834;52.992;8.856;2024-01-11T10:26:01;64.65;;;18.30;;
31206;SDS011;17834;52.992;8.856;2024-01-11T10:28:27;61.92;;;21.08;;
31206;SDS011;17834;52.992;8.856;2024-01-11T10:30:53;62.00;;;19.48;;
31206;SDS011;17834;52.992;8.856;2024-01-11T10:33:20;59.03;;;19.17;;
31206;SDS011;17834;52.992;8.856;2024-01-11T10:35:46;59.58;;;19.05;;
31206;SDS011;17834;52.992;8.856;2024-01-11T10:38:16;64.93;;;19.95;;
31206;SDS011;17834;52.992;8.856;2024-01-11T10:40:43;70.55;;;20.52;;
31206;SDS011;17834;52.992;8.856;2024-01-11T10:43:09;63.97;;;19.98;;
31206;SDS011;17834;52.992;8.856;2024-01-11T10:45:36;63.15;;;20.42;;
31206;SDS011;17834;52.992;8.856;2024-01-11T10:48:07;65.95;;;20.63;;
31206;SDS011;17834;52.992;8.856;2024-01-11T10:50:38;62.90;;;20.80;;
31206;SDS011;17834;52.992;8.856;2024-01-11T10:53:28;56.78;;;17.83;;
31206;SDS011;17834;52.992;8.856;2024-01-11T10:56:04;56.08;;;19.90;;
31206;SDS011;17834;52.992;8.856;2024-01-11T10:58:33;67.35;;;19.40;;
31206;SDS011;17834;52.992;8.856;2024-01-11T11:01:00;64.05;;;18.35;;
31206;SDS011;17834;52.992;8.856;2024-01-11T11:03:27;73.43;;;21.83;;
31206;SDS011;17834;52.992;8.856;2024-01-11T11:05:54;58.15;;;18.20;;
31206;SDS011;17834;52.992;8.856;2024-01-11T11:08:21;61.65;;;18.10;;
31206;SDS011;17834;52.992;8.856;2024-01-11T11:10:48;68.15;;;22.45;;
31206;SDS011;17834;52.992;8.856;2024-01-11T11:13:15;50.95;;;18.50;;
31206;SDS011;17834;52.992;8.856;2024-01-11T11:15:42;55.50;;;19.98;;
31206;SDS011;17834;52.992;8.856;2024-01-11T11:18:15;51.70;;;16.35;;
31206;SDS011;17834;52.992;8.856;2024-01-11T11:20:41;63.15;;;18.95;;
31206;SDS011;17834;52.992;8.856;2024-01-11T11:23:08;60.65;;;19.15;;
31206;SDS011;17834;52.992;8.856;2024-01-11T11:25:42;59.05;;;18.73;;
31206;SDS011;17834;52.992;8.856;2024-01-11T11:28:08;56.88;;;19.17;;
31206;SDS011;17834;52.992;8.856;2024-01-11T11:30:37;59.53;;;18.63;;
31206;SDS011;17834;52.992;8.856;2024-01-11T11:35:48;54.00;;;17.80;;
31206;SDS011;17834;52.992;8.856;2024-01-11T11:38:21;60.88;;;20.98;;
31206;SDS011;17834;52.992;8.856;2024-01-11T11:40:48;58.67;;;17.30;;
31206;SDS011;17834;52.992;8.856;2024-01-11T11:43:17;58.33;;;20.38;;
31206;SDS011;17834;52.992;8.856;2024-01-11T11:45:44;59.00;;;18.73;;
31206;SDS011;17834;52.992;8.856;2024-01-11T11:53:33;60.03;;;18.00;;
31206;SDS011;17834;52.992;8.856;2024-01-11T11:55:59;61.28;;;18.65;;
31206;SDS011;17834;52.992;8.856;2024-01-11T11:58:25;58.67;;;18.15;;
31206;SDS011;17834;52.992;8.856;2024-01-11T12:00:52;47.67;;;17.80;;
31206;SDS011;17834;52.992;8.856;2024-01-11T12:03:18;62.58;;;20.30;;
31206;SDS011;17834;52.992;8.856;2024-01-11T12:05:44;53.88;;;19.17;;
31206;SDS011;17834;52.992;8.856;2024-01-11T12:08:10;69.75;;;20.27;;
31206;SDS011;17834;52.992;8.856;2024-01-11T12:10:36;52.47;;;18.13;;
31206;SDS011;17834;52.992;8.856;2024-01-11T12:13:02;62.28;;;18.60;;
31206;SDS011;17834;52.992;8.856;2024-01-11T12:15:29;64.28;;;17.92;;
31206;SDS011;17834;52.992;8.856;2024-01-11T12:17:58;65.93;;;18.00;;
31206;SDS011;17834;52.992;8.856;2024-01-11T12:20:24;53.63;;;18.05;;
31206;SDS011;17834;52.992;8.856;2024-01-11T12:22:50;59.72;;;17.92;;
31206;SDS011;17834;52.992;8.856;2024-01-11T12:25:16;62.83;;;19.27;;
31206;SDS011;17834;52.992;8.856;2024-01-11T12:27:42;59.30;;;17.17;;
31206;SDS011;17834;52.992;8.856;2024-01-11T12:30:08;69.18;;;18.45;;
31206;SDS011;17834;52.992;8.856;2024-01-11T12:32:39;65.03;;;19.95;;
31206;SDS011;17834;52.992;8.856;2024-01-11T12:35:05;64.40;;;19.25;;
31206;SDS011;17834;52.992;8.856;2024-01-11T12:37:31;57.35;;;19.23;;
31206;SDS011;17834;52.992;8.856;2024-01-11T12:39:57;64.72;;;21.23;;
31206;SDS011;17834;52.992;8.856;2024-01-11T12:42:27;65.63;;;17.58;;
31206;SDS011;17834;52.992;8.856;2024-01-11T12:44:53;52.42;;;18.13;;
31206;SDS011;17834;52.992;8.856;2024-01-11T12:47:18;58.50;;;18.92;;
31206;SDS011;17834;52.992;8.856;2024-01-11T12:49:44;63.97;;;18.10;;
31206;SDS011;17834;52.992;8.856;2024-01-11T12:52:17;64.07;;;18.88;;
31206;SDS011;17834;52.992;8.856;2024-01-11T12:54:46;68.40;;;20.95;;
31206;SDS011;17834;52.992;8.856;2024-01-11T12:57:12;59.95;;;18.00;;
31206;SDS011;17834;52.992;8.856;2024-01-11T12:59:43;64.40;;;19.98;;
31206;SDS011;17834;52.992;8.856;2024-01-11T13:02:08;58.13;;;17.45;;
31206;SDS011;17834;52.992;8.856;2024-01-11T13:04:38;49.97;;;16.35;;
31206;SDS011;17834;52.992;8.856;2024-01-11T13:07:04;63.72;;;18.00;;
31206;SDS011;17834;52.992;8.856;2024-01-11T13:09:30;61.88;;;19.25;;
31206;SDS011;17834;52.992;8.856;2024-01-11T13:11:55;57.17;;;18.23;;
31206;SDS011;17834;52.992;8.856;2024-01-11T13:14:21;53.03;;;16.45;;
31206;SDS011;17834;52.992;8.856;2024-01-11T13:16:48;62.28;;;19.15;;
31206;SDS011;17834;52.992;8.856;2024-01-11T13:19:13;63.22;;;19.75;;
31206;SDS011;17834;52.992;8.856;2024-01-11T13:21:39;58.83;;;17.55;;
31206;SDS011;17834;52.992;8.856;2024-01-11T13:24:06;54.85;;;17.73;;
31206;SDS011;17834;52.992;8.856;2024-01-11T13:26:35;58.13;;;18.73;;
31206;SDS011;17834;52.992;8.856;2024-01-11T13:29:03;60.17;;;20.17;;
31206;SDS011;17834;52.992;8.856;2024-01-11T13:31:32;61.60;;;17.25;;
31206;SDS011;17834;52.992;8.856;2024-01-11T13:33:58;52.38;;;17.88;;
31206;SDS011;17834;52.992;8.856;2024-01-11T13:36:24;54.03;;;17.77;;
31206;SDS011;17834;52.992;8.856;2024-01-11T13:38:50;58.50;;;16.95;;
31206;SDS011;17834;52.992;8.856;2024-01-11T13:41:16;54.65;;;16.92;;
31206;SDS011;17834;52.992;8.856;2024-01-11T13:43:42;62.72;;;17.58;;
31206;SDS011;17834;52.992;8.856;2024-01-11T13:46:08;46.42;;;16.38;;
31206;SDS011;17834;52.992;8.856;2024-01-11T13:48:34;44.38;;;15.85;;
31206;SDS011;17834;52.992;8.856;2024-01-11T13:50:59;49.58;;;16.15;;
31206;SDS011;17834;52.992;8.856;2024-01-11T13:53:25;48.50;;;15.27;;
31206;SDS011;17834;52.992;8.856;2024-01-11T13:55:51;58.88;;;18.90;;
31206;SDS011;17834;52.992;8.856;2024-01-11T13:58:17;56.05;;;15.80;;
31206;SDS011;17834;52.992;8.856;2024-01-11T14:00:43;49.15;;;15.32;;
31206;SDS011;17834;52.992;8.856;2024-01-11T14:03:09;42.78;;;16.60;;
31206;SDS011;17834;52.992;8.856;2024-01-11T14:05:36;47.88;;;17.73;;
31206;SDS011;17834;52.992;8.856;2024-01-11T14:08:02;48.13;;;15.25;;
31206;SDS011;17834;52.992;8.856;2024-01-11T14:10:30;41.83;;;15.27;;
31206;SDS011;17834;52.992;8.856;2024-01-11T14:13:00;42.85;;;15.57;;
31206;SDS011;17834;52.992;8.856;2024-01-11T14:15:26;52.90;;;15.90;;
31206;SDS011;17834;52.992;8.856;2024-01-11T14:17:52;49.45;;;16.90;;
31206;SDS011;17834;52.992;8.856;2024-01-11T14:20:18;42.47;;;15.88;;
31206;SDS011;17834;52.992;8.856;2024-01-11T14:22:46;44.25;;;14.40;;
31206;SDS011;17834;52.992;8.856;2024-01-11T14:25:15;45.33;;;17.40;;